sensor_id;sensor_type;location;lat;lon;timestamp;pressure;altitude;pressure_sealevel;temperature;humidity
13974;BME280;7060;43.770;4.008;2023-02-28T00:01:29;101015.34;;;4.73;51.86
13974;BME280;7060;43.770;4.008;2023-02-28T00:03:58;101021.34;;;4.75;52.48
13974;BME280;7060;43.770;4.008;2023-02-28T00:06:27;101017.13;;;4.72;52.02
13974;BME280;7060;43.770;4.008;2023-02-28T00:08:56;101024.00;;;4.75;52.39
13974;BME280;7060;43.770;4.008;2023-02-28T00:11:24;101025.06;;;4.72;52.44
13974;BME280;7060;43.770;4.008;2023-02-28T00:13:55;101028.56;;;4.73;52.61
13974;BME280;7060;43.770;4.008;2023-02-28T00:16:23;101024.00;;;4.75;51.73
13974;BME280;7060;43.770;4.008;2023-02-28T00:18:52;101026.66;;;4.75;52.06
13974;BME280;7060;43.770;4.008;2023-02-28T00:21:20;101019.44;;;4.77;52.62
13974;BME280;7060;43.770;4.008;2023-02-28T00:23:49;101030.03;;;4.77;51.65
13974;BME280;7060;43.770;4.008;2023-02-28T00:26:17;101020.31;;;4.77;52.32
13974;BME280;7060;43.770;4.008;2023-02-28T00:28:48;101027.28;;;4.78;52.28
13974;BME280;7060;43.770;4.008;2023-02-28T00:31:18;101022.00;;;4.78;51.86
13974;BME280;7060;43.770;4.008;2023-02-28T00:33:47;101006.84;;;4.68;52.10
13974;BME280;7060;43.770;4.008;2023-02-28T00:36:16;101016.91;;;4.75;52.09
13974;BME280;7060;43.770;4.008;2023-02-28T00:38:44;101023.91;;;4.76;51.90
13974;BME280;7060;43.770;4.008;2023-02-28T00:41:12;101012.03;;;4.69;52.27
13974;BME280;7060;43.770;4.008;2023-02-28T00:43:41;101017.56;;;4.79;52.01
13974;BME280;7060;43.770;4.008;2023-02-28T00:46:10;101019.91;;;4.84;51.88
13974;BME280;7060;43.770;4.008;2023-02-28T00:48:40;101027.66;;;4.87;51.90
13974;BME280;7060;43.770;4.008;2023-02-28T00:51:09;101020.66;;;4.86;51.66
13974;BME280;7060;43.770;4.008;2023-02-28T00:53:37;101036.44;;;4.87;52.44
13974;BME280;7060;43.770;4.008;2023-02-28T00:56:06;101026.63;;;4.89;52.53
13974;BME280;7060;43.770;4.008;2023-02-28T00:58:34;101030.19;;;4.88;52.74
13974;BME280;7060;43.770;4.008;2023-02-28T01:01:03;101033.72;;;4.89;51.86
13974;BME280;7060;43.770;4.008;2023-02-28T01:03:32;101004.41;;;4.77;51.98
13974;BME280;7060;43.770;4.008;2023-02-28T01:06:02;101008.84;;;4.77;51.75
13974;BME280;7060;43.770;4.008;2023-02-28T01:08:30;101032.00;;;4.88;51.94
13974;BME280;7060;43.770;4.008;2023-02-28T01:11:08;101029.94;;;4.93;51.55
13974;BME280;7060;43.770;4.008;2023-02-28T01:13:39;101033.53;;;4.92;52.60
13974;BME280;7060;43.770;4.008;2023-02-28T01:16:08;101025.56;;;4.92;51.67
13974;BME280;7060;43.770;4.008;2023-02-28T01:18:37;101036.19;;;4.92;52.41
13974;BME280;7060;43.770;4.008;2023-02-28T01:21:08;101034.28;;;4.94;51.76
13974;BME280;7060;43.770;4.008;2023-02-28T01:23:37;101037.97;;;4.91;50.82
13974;BME280;7060;43.770;4.008;2023-02-28T01:26:07;101026.34;;;4.79;51.34
13974;BME280;7060;43.770;4.008;2023-02-28T01:28:39;101047.63;;;4.92;51.37
13974;BME280;7060;43.770;4.008;2023-02-28T01:31:08;101055.28;;;4.97;51.76
13974;BME280;7060;43.770;4.008;2023-02-28T01:33:37;101047.13;;;5.00;52.01
13974;BME280;7060;43.770;4.008;2023-02-28T01:36:11;101051.56;;;4.99;51.27
13974;BME280;7060;43.770;4.008;2023-02-28T01:38:40;101010.34;;;4.81;52.10
13974;BME280;7060;43.770;4.008;2023-02-28T01:41:14;101022.94;;;4.92;52.20
13974;BME280;7060;43.770;4.008;2023-02-28T01:44:00;101040.75;;;5.02;51.97
13974;BME280;7060;43.770;4.008;2023-02-28T01:46:33;101043.38;;;5.02;52.30
13974;BME280;7060;43.770;4.008;2023-02-28T01:49:06;101040.44;;;5.07;52.75
13974;BME280;7060;43.770;4.008;2023-02-28T01:51:40;101043.84;;;5.09;53.35
13974;BME280;7060;43.770;4.008;2023-02-28T01:54:16;101039.47;;;5.08;54.26
13974;BME280;7060;43.770;4.008;2023-02-28T01:56:48;101032.47;;;5.07;54.31
13974;BME280;7060;43.770;4.008;2023-02-28T01:59:22;101037.78;;;5.07;54.91
13974;BME280;7060;43.770;4.008;2023-02-28T02:01:53;101044.97;;;5.05;54.86
13974;BME280;7060;43.770;4.008;2023-02-28T02:04:23;101035.22;;;5.05;54.84
13974;BME280;7060;43.770;4.008;2023-02-28T02:06:57;101039.78;;;5.03;55.04
13974;BME280;7060;43.770;4.008;2023-02-28T02:09:26;101036.53;;;5.00;54.50
13974;BME280;7060;43.770;4.008;2023-02-28T02:11:55;101028.47;;;5.01;53.87
13974;BME280;7060;43.770;4.008;2023-02-28T02:14:47;101033.53;;;5.04;53.79
13974;BME280;7060;43.770;4.008;2023-02-28T02:17:28;101005.25;;;4.78;53.29
13974;BME280;7060;43.770;4.008;2023-02-28T02:20:26;101036.81;;;4.95;52.62
13974;BME280;7060;43.770;4.008;2023-02-28T02:23:20;101033.63;;;4.90;52.68
13974;BME280;7060;43.770;4.008;2023-02-28T02:25:57;100899.69;;;4.07;51.90
13974;BME280;7060;43.770;4.008;2023-02-28T02:29:01;101038.06;;;4.90;52.79
13974;BME280;7060;43.770;4.008;2023-02-28T02:32:10;101050.84;;;4.83;52.60
13974;BME280;7060;43.770;4.008;2023-02-28T02:34:51;101048.84;;;4.87;52.97
13974;BME280;7060;43.770;4.008;2023-02-28T02:37:31;101053.88;;;4.91;53.25
13974;BME280;7060;43.770;4.008;2023-02-28T02:40:12;101031.44;;;4.83;53.24
13974;BME280;7060;43.770;4.008;2023-02-28T02:42:47;101049.78;;;5.00;53.26
13974;BME280;7060;43.770;4.008;2023-02-28T02:45:21;101051.13;;;5.05;53.97
13974;BME280;7060;43.770;4.008;2023-02-28T02:47:53;101049.22;;;5.07;53.30
13974;BME280;7060;43.770;4.008;2023-02-28T02:50:29;101047.34;;;5.09;53.67
13974;BME280;7060;43.770;4.008;2023-02-28T02:53:01;101010.91;;;4.86;54.34
13974;BME280;7060;43.770;4.008;2023-02-28T02:55:34;101043.84;;;5.09;54.54
13974;BME280;7060;43.770;4.008;2023-02-28T02:58:08;101010.81;;;4.88;54.38
13974;BME280;7060;43.770;4.008;2023-02-28T03:00:43;101039.47;;;5.08;54.68
13974;BME280;7060;43.770;4.008;2023-02-28T03:03:14;101045.72;;;5.07;54.42
13974;BME280;7060;43.770;4.008;2023-02-28T03:05:47;101036.94;;;5.06;54.38
13974;BME280;7060;43.770;4.008;2023-02-28T03:08:18;101046.28;;;4.99;54.16
13974;BME280;7060;43.770;4.008;2023-02-28T03:10:49;101001.00;;;4.75;53.95
13974;BME280;7060;43.770;4.008;2023-02-28T03:13:34;101043.53;;;5.01;54.48
13974;BME280;7060;43.770;4.008;2023-02-28T03:19:06;101040.13;;;4.99;54.25
13974;BME280;7060;43.770;4.008;2023-02-28T03:21:43;101033.13;;;4.98;53.88
13974;BME280;7060;43.770;4.008;2023-02-28T03:24:20;101041.91;;;4.98;54.33
13974;BME280;7060;43.770;4.008;2023-02-28T03:26:56;101020.75;;;4.84;53.94
13974;BME280;7060;43.770;4.008;2023-02-28T03:29:32;101043.81;;;4.96;53.98
13974;BME280;7060;43.770;4.008;2023-02-28T03:32:05;101014.25;;;4.75;53.18
13974;BME280;7060;43.770;4.008;2023-02-28T03:34:45;101054.72;;;4.92;53.88
13974;BME280;7060;43.770;4.008;2023-02-28T03:37:19;101056.22;;;4.96;54.08
13974;BME280;7060;43.770;4.008;2023-02-28T03:39:54;101059.72;;;4.96;55.03
13974;BME280;7060;43.770;4.008;2023-02-28T03:42:26;101058.41;;;4.89;53.41
13974;BME280;7060;43.770;4.008;2023-02-28T03:44:58;101056.63;;;4.90;53.36
13974;BME280;7060;43.770;4.008;2023-02-28T03:47:32;101050.53;;;4.88;53.56
13974;BME280;7060;43.770;4.008;2023-02-28T03:50:07;101054.53;;;4.95;53.78
13974;BME280;7060;43.770;4.008;2023-02-28T03:52:42;101065.13;;;4.95;53.53
13974;BME280;7060;43.770;4.008;2023-02-28T03:55:14;101068.72;;;4.94;53.27
13974;BME280;7060;43.770;4.008;2023-02-28T03:57:50;101071.16;;;4.97;53.13
13974;BME280;7060;43.770;4.008;2023-02-28T04:00:28;101092.25;;;4.98;53.52
13974;BME280;7060;43.770;4.008;2023-02-28T04:02:59;101079.97;;;4.97;53.41
13974;BME280;7060;43.770;4.008;2023-02-28T04:05:28;101078.16;;;4.98;53.90
13974;BME280;7060;43.770;4.008;2023-02-28T04:08:06;101087.91;;;4.97;54.38
13974;BME280;7060;43.770;4.008;2023-02-28T04:10:34;101085.16;;;4.99;54.46
13974;BME280;7060;43.770;4.008;2023-02-28T04:13:03;101083.97;;;5.03;53.92
13974;BME280;7060;43.770;4.008;2023-02-28T04:15:31;101089.28;;;5.03;54.07
13974;BME280;7060;43.770;4.008;2023-02-28T04:18:00;101095.44;;;5.03;54.94
13974;BME280;7060;43.770;4.008;2023-02-28T04:20:28;101094.38;;;5.06;55.00
13974;BME280;7060;43.770;4.008;2023-02-28T04:22:56;101097.22;;;5.03;54.77
13974;BME280;7060;43.770;4.008;2023-02-28T04:25:26;101088.31;;;4.91;55.60
13974;BME280;7060;43.770;4.008;2023-02-28T04:27:55;101106.84;;;4.91;54.53
13974;BME280;7060;43.770;4.008;2023-02-28T04:30:23;101113.28;;;4.87;54.87
13974;BME280;7060;43.770;4.008;2023-02-28T04:32:51;101118.75;;;4.84;55.26
13974;BME280;7060;43.770;4.008;2023-02-28T04:35:20;101119.06;;;4.79;54.96
13974;BME280;7060;43.770;4.008;2023-02-28T04:37:48;101119.34;;;4.75;54.91
13974;BME280;7060;43.770;4.008;2023-02-28T04:40:17;101120.34;;;4.74;55.01
13974;BME280;7060;43.770;4.008;2023-02-28T04:42:47;101128.38;;;4.72;55.04
13974;BME280;7060;43.770;4.008;2023-02-28T04:45:15;101128.38;;;4.72;54.57
13974;BME280;7060;43.770;4.008;2023-02-28T04:47:44;101130.28;;;4.70;54.08
13974;BME280;7060;43.770;4.008;2023-02-28T04:50:12;101134.19;;;4.77;54.23
13974;BME280;7060;43.770;4.008;2023-02-28T04:52:40;101136.66;;;4.81;55.11
13974;BME280;7060;43.770;4.008;2023-02-28T04:55:09;101131.16;;;4.84;54.73
13974;BME280;7060;43.770;4.008;2023-02-28T04:57:38;101140.06;;;4.83;55.29
13974;BME280;7060;43.770;4.008;2023-02-28T05:00:09;101134.47;;;4.87;55.60
13974;BME280;7060;43.770;4.008;2023-02-28T05:02:39;101143.25;;;4.88;55.43
13974;BME280;7060;43.770;4.008;2023-02-28T05:05:08;101138.91;;;4.87;56.16
13974;BME280;7060;43.770;4.008;2023-02-28T05:07:37;101133.06;;;4.82;57.26
13974;BME280;7060;43.770;4.008;2023-02-28T05:10:05;101141.94;;;4.81;57.86
13974;BME280;7060;43.770;4.008;2023-02-28T05:12:34;101144.59;;;4.81;57.54
13974;BME280;7060;43.770;4.008;2023-02-28T05:15:03;101133.00;;;4.69;57.84
13974;BME280;7060;43.770;4.008;2023-02-28T05:17:33;101140.66;;;4.73;58.60
13974;BME280;7060;43.770;4.008;2023-02-28T05:20:01;101143.50;;;4.70;59.07
13974;BME280;7060;43.770;4.008;2023-02-28T05:22:41;101141.91;;;4.68;58.50
13974;BME280;7060;43.770;4.008;2023-02-28T05:25:12;101153.34;;;4.68;59.38
13974;BME280;7060;43.770;4.008;2023-02-28T05:27:42;101147.09;;;4.69;58.82
13974;BME280;7060;43.770;4.008;2023-02-28T05:30:11;101146.16;;;4.70;59.48
13974;BME280;7060;43.770;4.008;2023-02-28T05:32:41;101153.34;;;4.68;59.96
13974;BME280;7060;43.770;4.008;2023-02-28T05:35:11;101158.09;;;4.63;59.99
13974;BME280;7060;43.770;4.008;2023-02-28T05:37:39;101156.38;;;4.62;60.06
13974;BME280;7060;43.770;4.008;2023-02-28T05:40:09;101148.53;;;4.61;60.84
13974;BME280;7060;43.770;4.008;2023-02-28T05:42:38;101112.84;;;4.39;60.82
13974;BME280;7060;43.770;4.008;2023-02-28T05:45:08;101146.06;;;4.58;60.86
13974;BME280;7060;43.770;4.008;2023-02-28T05:47:36;101161.31;;;4.54;60.70
13974;BME280;7060;43.770;4.008;2023-02-28T05:50:08;101156.00;;;4.54;61.15
13974;BME280;7060;43.770;4.008;2023-02-28T05:52:37;101170.19;;;4.53;61.30
13974;BME280;7060;43.770;4.008;2023-02-28T05:55:06;101177.28;;;4.53;61.27
13974;BME280;7060;43.770;4.008;2023-02-28T05:57:35;101172.94;;;4.52;61.01
13974;BME280;7060;43.770;4.008;2023-02-28T06:00:04;101164.25;;;4.50;61.63
13974;BME280;7060;43.770;4.008;2023-02-28T06:02:38;101153.09;;;4.44;61.62
13974;BME280;7060;43.770;4.008;2023-02-28T06:05:13;101157.75;;;4.41;62.64
13974;BME280;7060;43.770;4.008;2023-02-28T06:07:42;101163.22;;;4.38;61.73
13974;BME280;7060;43.770;4.008;2023-02-28T06:10:11;101170.31;;;4.37;61.87
13974;BME280;7060;43.770;4.008;2023-02-28T06:12:40;101165.88;;;4.38;62.30
13974;BME280;7060;43.770;4.008;2023-02-28T06:15:12;101146.38;;;4.25;62.48
13974;BME280;7060;43.770;4.008;2023-02-28T06:17:41;101168.22;;;4.28;62.69
13974;BME280;7060;43.770;4.008;2023-02-28T06:20:12;101172.75;;;4.26;62.48
13974;BME280;7060;43.770;4.008;2023-02-28T06:22:40;101174.13;;;4.19;62.33
13974;BME280;7060;43.770;4.008;2023-02-28T06:25:10;101179.28;;;4.21;63.51
13974;BME280;7060;43.770;4.008;2023-02-28T06:27:38;101187.22;;;4.21;63.13
13974;BME280;7060;43.770;4.008;2023-02-28T06:30:08;101187.34;;;4.19;62.90
13974;BME280;7060;43.770;4.008;2023-02-28T06:32:36;101182.31;;;4.15;63.90
13974;BME280;7060;43.770;4.008;2023-02-28T06:35:06;101190.25;;;4.15;63.73
13974;BME280;7060;43.770;4.008;2023-02-28T06:37:36;101189.41;;;4.14;63.57
13974;BME280;7060;43.770;4.008;2023-02-28T06:40:09;101187.72;;;4.13;64.08
13974;BME280;7060;43.770;4.008;2023-02-28T06:42:40;101191.97;;;4.16;63.55
13974;BME280;7060;43.770;4.008;2023-02-28T06:45:09;101191.88;;;4.17;64.48
13974;BME280;7060;43.770;4.008;2023-02-28T06:47:38;101202.75;;;4.13;64.24
13974;BME280;7060;43.770;4.008;2023-02-28T06:50:09;101197.06;;;4.04;65.27
13974;BME280;7060;43.770;4.008;2023-02-28T06:52:40;101214.72;;;4.04;65.07
13974;BME280;7060;43.770;4.008;2023-02-28T06:55:09;101205.16;;;4.01;64.58
13974;BME280;7060;43.770;4.008;2023-02-28T06:57:37;101224.44;;;4.03;64.86
13974;BME280;7060;43.770;4.008;2023-02-28T07:00:08;101216.25;;;4.08;64.99
13974;BME280;7060;43.770;4.008;2023-02-28T07:02:37;101226.47;;;4.14;63.74
13974;BME280;7060;43.770;4.008;2023-02-28T07:05:06;101218.63;;;4.13;63.60
13974;BME280;7060;43.770;4.008;2023-02-28T07:07:34;101246.69;;;4.29;62.52
13974;BME280;7060;43.770;4.008;2023-02-28T07:10:07;101246.41;;;4.34;62.88
13974;BME280;7060;43.770;4.008;2023-02-28T07:12:37;101240.19;;;4.35;62.34
13974;BME280;7060;43.770;4.008;2023-02-28T07:15:07;101233.84;;;4.37;63.38
13974;BME280;7060;43.770;4.008;2023-02-28T07:17:36;101234.44;;;4.42;62.24
13974;BME280;7060;43.770;4.008;2023-02-28T07:20:06;101249.63;;;4.39;61.26
13974;BME280;7060;43.770;4.008;2023-02-28T07:22:35;101244.25;;;4.40;61.25
13974;BME280;7060;43.770;4.008;2023-02-28T07:25:04;101248.88;;;4.37;62.20
13974;BME280;7060;43.770;4.008;2023-02-28T07:27:34;101254.94;;;4.39;60.90
13974;BME280;7060;43.770;4.008;2023-02-28T07:30:03;101254.19;;;4.37;60.91
13974;BME280;7060;43.770;4.008;2023-02-28T07:32:32;101257.75;;;4.36;60.03
13974;BME280;7060;43.770;4.008;2023-02-28T07:35:05;101260.69;;;4.31;59.70
13974;BME280;7060;43.770;4.008;2023-02-28T07:37:34;101265.31;;;4.28;59.68
13974;BME280;7060;43.770;4.008;2023-02-28T07:40:04;101272.31;;;4.29;59.32
13974;BME280;7060;43.770;4.008;2023-02-28T07:42:36;101282.72;;;4.32;59.44
13974;BME280;7060;43.770;4.008;2023-02-28T07:45:06;101267.78;;;4.31;59.56
13974;BME280;7060;43.770;4.008;2023-02-28T07:47:35;101280.94;;;4.47;59.38
13974;BME280;7060;43.770;4.008;2023-02-28T07:50:04;101286.59;;;4.55;59.52
13974;BME280;7060;43.770;4.008;2023-02-28T07:52:33;101282.75;;;4.60;59.46
13974;BME280;7060;43.770;4.008;2023-02-28T07:55:01;101280.38;;;4.70;58.71
13974;BME280;7060;43.770;4.008;2023-02-28T07:57:29;101280.75;;;4.78;59.37
13974;BME280;7060;43.770;4.008;2023-02-28T08:00:03;101283.97;;;4.83;59.29
13974;BME280;7060;43.770;4.008;2023-02-28T08:02:37;101294.88;;;4.93;58.93
13974;BME280;7060;43.770;4.008;2023-02-28T08:05:06;101294.50;;;4.99;58.28
13974;BME280;7060;43.770;4.008;2023-02-28T08:07:35;101303.94;;;5.03;58.15
13974;BME280;7060;43.770;4.008;2023-02-28T08:10:05;101313.41;;;5.07;58.67
13974;BME280;7060;43.770;4.008;2023-02-28T08:12:33;101309.13;;;5.04;58.42
13974;BME280;7060;43.770;4.008;2023-02-28T08:15:04;101304.78;;;5.03;57.85
13974;BME280;7060;43.770;4.008;2023-02-28T08:17:33;101316.47;;;5.01;57.41
13974;BME280;7060;43.770;4.008;2023-02-28T08:20:01;101289.06;;;4.86;57.77
13974;BME280;7060;43.770;4.008;2023-02-28T08:22:30;101317.75;;;5.08;57.88
13974;BME280;7060;43.770;4.008;2023-02-28T08:24:59;101310.75;;;5.07;57.98
13974;BME280;7060;43.770;4.008;2023-02-28T08:27:27;101324.94;;;5.20;57.46
13974;BME280;7060;43.770;4.008;2023-02-28T08:29:56;101326.47;;;5.24;57.47
13974;BME280;7060;43.770;4.008;2023-02-28T08:32:25;101322.66;;;5.28;57.27
13974;BME280;7060;43.770;4.008;2023-02-28T08:34:56;101275.94;;;4.99;56.67
13974;BME280;7060;43.770;4.008;2023-02-28T08:37:25;101331.56;;;5.27;55.56
13974;BME280;7060;43.770;4.008;2023-02-28T08:39:53;101323.72;;;5.26;55.61
13974;BME280;7060;43.770;4.008;2023-02-28T08:42:22;101324.34;;;5.29;55.38
13974;BME280;7060;43.770;4.008;2023-02-28T08:44:51;101323.53;;;5.29;55.07
13974;BME280;7060;43.770;4.008;2023-02-28T08:47:19;101326.59;;;5.35;56.25
13974;BME280;7060;43.770;4.008;2023-02-28T08:49:49;101319.31;;;5.39;55.78
13974;BME280;7060;43.770;4.008;2023-02-28T08:52:18;101324.88;;;5.49;55.62
13974;BME280;7060;43.770;4.008;2023-02-28T08:54:46;101330.75;;;5.54;55.63
13974;BME280;7060;43.770;4.008;2023-02-28T08:57:14;101325.97;;;5.59;55.81
13974;BME280;7060;43.770;4.008;2023-02-28T08:59:43;101321.22;;;5.64;55.15
13974;BME280;7060;43.770;4.008;2023-02-28T09:02:12;101323.69;;;5.67;54.72
13974;BME280;7060;43.770;4.008;2023-02-28T09:04:41;101323.28;;;5.73;54.45
13974;BME280;7060;43.770;4.008;2023-02-28T09:07:14;101291.28;;;5.62;55.42
13974;BME280;7060;43.770;4.008;2023-02-28T09:09:43;101327.81;;;5.98;55.64
13974;BME280;7060;43.770;4.008;2023-02-28T09:12:21;101335.09;;;6.08;55.89
13974;BME280;7060;43.770;4.008;2023-02-28T09:14:50;101324.78;;;6.17;53.84
13974;BME280;7060;43.770;4.008;2023-02-28T09:17:19;101332.75;;;6.17;53.67
13974;BME280;7060;43.770;4.008;2023-02-28T09:19:48;101321.38;;;6.14;52.22
13974;BME280;7060;43.770;4.008;2023-02-28T09:22:18;101324.56;;;6.07;51.41
13974;BME280;7060;43.770;4.008;2023-02-28T09:24:47;101325.53;;;6.06;51.50
13974;BME280;7060;43.770;4.008;2023-02-28T09:27:15;101336.78;;;6.09;51.95
13974;BME280;7060;43.770;4.008;2023-02-28T09:29:44;101324.88;;;6.15;52.24
13974;BME280;7060;43.770;4.008;2023-02-28T09:32:12;101328.63;;;6.25;51.44
13974;BME280;7060;43.770;4.008;2023-02-28T09:34:41;101331.72;;;6.32;50.85
13974;BME280;7060;43.770;4.008;2023-02-28T09:37:10;101329.47;;;6.26;50.46
13974;BME280;7060;43.770;4.008;2023-02-28T09:39:39;101334.38;;;6.32;51.27
13974;BME280;7060;43.770;4.008;2023-02-28T09:42:18;101330.47;;;6.37;51.38
13974;BME280;7060;43.770;4.008;2023-02-28T09:44:50;101340.84;;;6.40;52.21
13974;BME280;7060;43.770;4.008;2023-02-28T09:47:30;101333.13;;;6.50;51.84
13974;BME280;7060;43.770;4.008;2023-02-28T09:50:18;101330.91;;;6.57;51.04
13974;BME280;7060;43.770;4.008;2023-02-28T09:52:50;101325.28;;;6.61;50.29
13974;BME280;7060;43.770;4.008;2023-02-28T09:55:26;101329.09;;;6.70;50.21
13974;BME280;7060;43.770;4.008;2023-02-28T09:58:04;101330.56;;;6.74;49.41
13974;BME280;7060;43.770;4.008;2023-02-28T10:00:37;101329.53;;;6.76;49.37
13974;BME280;7060;43.770;4.008;2023-02-28T10:03:29;101337.19;;;6.81;49.97
13974;BME280;7060;43.770;4.008;2023-02-28T10:06:02;101335.91;;;6.87;50.48
13974;BME280;7060;43.770;4.008;2023-02-28T10:08:37;101326.75;;;6.91;49.39
13974;BME280;7060;43.770;4.008;2023-02-28T10:11:16;101320.16;;;6.84;49.09
13974;BME280;7060;43.770;4.008;2023-02-28T10:13:51;101331.84;;;6.81;49.34
13974;BME280;7060;43.770;4.008;2023-02-28T10:16:25;101328.69;;;6.89;50.31
13974;BME280;7060;43.770;4.008;2023-02-28T10:19:02;101323.00;;;6.93;48.91
13974;BME280;7060;43.770;4.008;2023-02-28T10:21:36;101320.25;;;6.95;49.40
13974;BME280;7060;43.770;4.008;2023-02-28T10:24:13;101317.91;;;7.03;49.42
13974;BME280;7060;43.770;4.008;2023-02-28T10:26:47;101322.25;;;7.04;49.04
13974;BME280;7060;43.770;4.008;2023-02-28T10:29:16;101322.16;;;7.05;50.51
13974;BME280;7060;43.770;4.008;2023-02-28T10:31:44;101318.44;;;7.08;49.54
13974;BME280;7060;43.770;4.008;2023-02-28T10:34:13;101324.69;;;7.07;48.89
13974;BME280;7060;43.770;4.008;2023-02-28T10:36:42;101321.09;;;7.08;49.41
13974;BME280;7060;43.770;4.008;2023-02-28T10:39:33;101325.34;;;7.10;49.21
13974;BME280;7060;43.770;4.008;2023-02-28T10:42:04;101327.25;;;7.08;47.87
13974;BME280;7060;43.770;4.008;2023-02-28T10:44:33;101323.22;;;7.03;48.93
13974;BME280;7060;43.770;4.008;2023-02-28T10:47:02;101330.03;;;7.07;48.88
13974;BME280;7060;43.770;4.008;2023-02-28T10:49:30;101326.19;;;7.11;49.40
13974;BME280;7060;43.770;4.008;2023-02-28T10:52:00;101297.59;;;7.02;49.66
13974;BME280;7060;43.770;4.008;2023-02-28T10:54:30;101320.44;;;7.17;49.12
13974;BME280;7060;43.770;4.008;2023-02-28T10:57:16;101324.91;;;7.17;48.40
13974;BME280;7060;43.770;4.008;2023-02-28T10:59:46;101328.84;;;7.11;47.49
13974;BME280;7060;43.770;4.008;2023-02-28T11:02:33;101322.38;;;7.15;48.44
13974;BME280;7060;43.770;4.008;2023-02-28T11:05:23;101316.47;;;7.23;48.89
13974;BME280;7060;43.770;4.008;2023-02-28T11:07:52;101316.88;;;7.29;48.66
13974;BME280;7060;43.770;4.008;2023-02-28T11:10:25;101320.84;;;7.36;49.57
13974;BME280;7060;43.770;4.008;2023-02-28T11:12:56;101311.47;;;7.31;47.96
13974;BME280;7060;43.770;4.008;2023-02-28T11:15:28;101312.34;;;7.19;47.82
13974;BME280;7060;43.770;4.008;2023-02-28T11:17:59;101224.59;;;6.69;47.76
13974;BME280;7060;43.770;4.008;2023-02-28T11:20:30;101304.69;;;7.14;47.40
13974;BME280;7060;43.770;4.008;2023-02-28T11:23:02;101306.94;;;7.07;47.86
13974;BME280;7060;43.770;4.008;2023-02-28T11:25:34;101259.03;;;6.84;47.81
13974;BME280;7060;43.770;4.008;2023-02-28T11:28:05;101294.09;;;7.01;48.00
13974;BME280;7060;43.770;4.008;2023-02-28T11:30:36;101272.31;;;6.84;49.39
13974;BME280;7060;43.770;4.008;2023-02-28T11:33:21;101293.34;;;6.99;48.56
13974;BME280;7060;43.770;4.008;2023-02-28T11:35:51;101284.84;;;6.94;48.91
13974;BME280;7060;43.770;4.008;2023-02-28T11:38:20;101289.31;;;6.94;48.64
13974;BME280;7060;43.770;4.008;2023-02-28T11:41:03;101267.00;;;6.84;48.42
13974;BME280;7060;43.770;4.008;2023-02-28T11:43:46;101288.59;;;6.92;48.05
13974;BME280;7060;43.770;4.008;2023-02-28T11:46:24;101294.53;;;6.82;48.88
13974;BME280;7060;43.770;4.008;2023-02-28T11:49:03;101289.97;;;6.85;49.35
13974;BME280;7060;43.770;4.008;2023-02-28T11:51:43;101290.09;;;6.83;49.43
13974;BME280;7060;43.770;4.008;2023-02-28T11:54:26;101286.34;;;6.86;49.51
13974;BME280;7060;43.770;4.008;2023-02-28T11:56:59;101272.13;;;6.74;49.97
13974;BME280;7060;43.770;4.008;2023-02-28T11:59:44;101282.84;;;6.85;49.42
13974;BME280;7060;43.770;4.008;2023-02-28T12:02:24;101274.88;;;6.85;49.39
13974;BME280;7060;43.770;4.008;2023-02-28T12:05:11;101281.03;;;6.86;49.91
13974;BME280;7060;43.770;4.008;2023-02-28T12:07:48;101252.34;;;6.78;49.78
13974;BME280;7060;43.770;4.008;2023-02-28T12:10:21;101267.53;;;6.89;49.55
13974;BME280;7060;43.770;4.008;2023-02-28T12:13:04;101271.91;;;6.90;50.58
13974;BME280;7060;43.770;4.008;2023-02-28T12:19:01;101280.38;;;6.95;50.05
13974;BME280;7060;43.770;4.008;2023-02-28T12:21:44;101266.47;;;6.91;48.40
13974;BME280;7060;43.770;4.008;2023-02-28T12:24:30;101273.06;;;6.86;49.03
13974;BME280;7060;43.770;4.008;2023-02-28T12:27:09;101274.56;;;6.90;50.08
13974;BME280;7060;43.770;4.008;2023-02-28T12:29:45;101266.59;;;6.90;48.51
13974;BME280;7060;43.770;4.008;2023-02-28T12:32:18;101261.47;;;6.87;49.26
13974;BME280;7060;43.770;4.008;2023-02-28T12:34:55;101265.72;;;6.89;49.37
13974;BME280;7060;43.770;4.008;2023-02-28T12:37:29;101265.00;;;6.87;49.88
13974;BME280;7060;43.770;4.008;2023-02-28T12:40:02;101260.53;;;6.88;49.78
13974;BME280;7060;43.770;4.008;2023-02-28T12:42:38;101253.72;;;6.84;49.69
13974;BME280;7060;43.770;4.008;2023-02-28T12:45:15;101250.09;;;6.85;49.53
13974;BME280;7060;43.770;4.008;2023-02-28T12:47:49;101245.63;;;6.85;50.09
13974;BME280;7060;43.770;4.008;2023-02-28T12:50:21;101247.13;;;6.89;50.79
13974;BME280;7060;43.770;4.008;2023-02-28T12:52:54;101230.13;;;6.92;50.23
13974;BME280;7060;43.770;4.008;2023-02-28T12:55:31;101234.84;;;6.99;51.01
13974;BME280;7060;43.770;4.008;2023-02-28T12:58:08;101233.47;;;7.06;50.46
13974;BME280;7060;43.770;4.008;2023-02-28T13:01:02;101232.59;;;7.06;51.11
13974;BME280;7060;43.770;4.008;2023-02-28T13:04:16;101233.25;;;7.09;51.18
13974;BME280;7060;43.770;4.008;2023-02-28T13:07:04;101233.97;;;7.11;51.17
13974;BME280;7060;43.770;4.008;2023-02-28T13:09:37;101231.09;;;7.14;51.67
13974;BME280;7060;43.770;4.008;2023-02-28T13:12:13;101227.00;;;7.22;50.82
13974;BME280;7060;43.770;4.008;2023-02-28T13:14:42;101228.72;;;7.23;51.40
13974;BME280;7060;43.770;4.008;2023-02-28T13:17:13;101232.97;;;7.25;51.62
13974;BME280;7060;43.770;4.008;2023-02-28T13:19:56;101223.50;;;7.21;50.05
13974;BME280;7060;43.770;4.008;2023-02-28T13:22:46;101232.91;;;7.14;50.60
13974;BME280;7060;43.770;4.008;2023-02-28T13:31:22;101207.31;;;7.24;50.69
13974;BME280;7060;43.770;4.008;2023-02-28T13:34:18;101221.03;;;7.31;50.97
13974;BME280;7060;43.770;4.008;2023-02-28T13:36:46;101217.31;;;7.33;49.45
13974;BME280;7060;43.770;4.008;2023-02-28T13:39:47;101216.16;;;7.37;50.43
13974;BME280;7060;43.770;4.008;2023-02-28T13:42:30;101212.06;;;7.44;51.45
13974;BME280;7060;43.770;4.008;2023-02-28T13:45:20;101224.00;;;7.39;50.77
13974;BME280;7060;43.770;4.008;2023-02-28T13:47:58;101219.09;;;7.45;51.85
13974;BME280;7060;43.770;4.008;2023-02-28T13:50:30;101222.22;;;7.51;51.25
13974;BME280;7060;43.770;4.008;2023-02-28T13:56:25;101212.06;;;7.44;50.80